sensor_id;sensor_type;location;lat;lon;timestamp;pressure;altitude;pressure_sealevel;temperature;humidity
29733;BME280;16643;43.158;25.302;2022-09-16T00:01:19;97225.13;;;25.27;45.06
29733;BME280;16643;43.158;25.302;2022-09-16T00:03:45;97173.00;;;24.82;44.96
29733;BME280;16643;43.158;25.302;2022-09-16T00:06:20;97220.16;;;25.32;45.07
29733;BME280;16643;43.158;25.302;2022-09-16T00:08:47;97228.13;;;25.32;44.78
29733;BME280;16643;43.158;25.302;2022-09-16T00:11:14;97226.00;;;25.36;44.75
29733;BME280;16643;43.158;25.302;2022-09-16T00:13:40;97192.50;;;25.17;44.79
29733;BME280;16643;43.158;25.302;2022-09-16T00:16:19;97226.97;;;25.35;44.56
29733;BME280;16643;43.158;25.302;2022-09-16T00:18:46;97228.97;;;25.32;44.57
29733;BME280;16643;43.158;25.302;2022-09-16T00:21:11;97232.44;;;25.25;44.40
29733;BME280;16643;43.158;25.302;2022-09-16T00:23:38;97218.28;;;25.24;44.53
29733;BME280;16643;43.158;25.302;2022-09-16T00:26:04;97196.78;;;25.18;44.20
29733;BME280;16643;43.158;25.302;2022-09-16T00:28:30;97212.69;;;25.36;44.32
29733;BME280;16643;43.158;25.302;2022-09-16T00:31:00;97189.19;;;25.23;44.27
29733;BME280;16643;43.158;25.302;2022-09-16T00:33:26;97224.34;;;25.43;43.92
29733;BME280;16643;43.158;25.302;2022-09-16T00:35:52;97226.00;;;25.36;44.00
29733;BME280;16643;43.158;25.302;2022-09-16T00:38:17;97200.47;;;25.17;43.66
29733;BME280;16643;43.158;25.302;2022-09-16T00:40:45;97229.47;;;25.36;44.12
29733;BME280;16643;43.158;25.302;2022-09-16T00:43:12;97230.09;;;25.30;44.08
29733;BME280;16643;43.158;25.302;2022-09-16T00:45:39;97226.47;;;25.31;43.84
29733;BME280;16643;43.158;25.302;2022-09-16T00:48:07;97212.97;;;25.24;43.38
29733;BME280;16643;43.158;25.302;2022-09-16T00:53:08;97194.63;;;25.13;43.20
29733;BME280;16643;43.158;25.302;2022-09-16T00:55:37;97195.63;;;25.12;43.59
29733;BME280;16643;43.158;25.302;2022-09-16T00:58:13;97214.28;;;25.28;43.47
29733;BME280;16643;43.158;25.302;2022-09-16T01:00:42;97195.66;;;25.20;43.25
29733;BME280;16643;43.158;25.302;2022-09-16T01:03:08;97209.19;;;25.35;43.56
29733;BME280;16643;43.158;25.302;2022-09-16T01:05:35;97192.66;;;25.23;43.39
29733;BME280;16643;43.158;25.302;2022-09-16T01:08:02;97240.19;;;25.52;43.48
29733;BME280;16643;43.158;25.302;2022-09-16T01:10:27;97207.88;;;25.39;43.44
29733;BME280;16643;43.158;25.302;2022-09-16T01:12:55;97236.34;;;25.47;43.47
29733;BME280;16643;43.158;25.302;2022-09-16T01:15:27;97233.28;;;25.33;44.18
29733;BME280;16643;43.158;25.302;2022-09-16T01:18:04;97218.91;;;25.18;44.14
29733;BME280;16643;43.158;25.302;2022-09-16T01:24:10;97242.56;;;25.29;43.94
29733;BME280;16643;43.158;25.302;2022-09-16T01:29:43;97254.06;;;25.30;44.03
29733;BME280;16643;43.158;25.302;2022-09-16T01:35:07;97227.66;;;25.03;43.73
29733;BME280;16643;43.158;25.302;2022-09-16T01:40:32;97236.38;;;25.13;43.20
29733;BME280;16643;43.158;25.302;2022-09-16T01:51:25;97270.59;;;25.42;42.83
29733;BME280;16643;43.158;25.302;2022-09-16T01:54:33;97266.91;;;25.35;43.09
29733;BME280;16643;43.158;25.302;2022-09-16T01:57:18;97263.59;;;25.41;43.43
29733;BME280;16643;43.158;25.302;2022-09-16T01:59:53;97261.88;;;25.31;42.92
29733;BME280;16643;43.158;25.302;2022-09-16T02:02:43;97281.88;;;25.36;42.97
29733;BME280;16643;43.158;25.302;2022-09-16T02:05:17;97290.03;;;25.34;43.09
29733;BME280;16643;43.158;25.302;2022-09-16T02:07:49;97291.53;;;25.37;43.47
29733;BME280;16643;43.158;25.302;2022-09-16T02:10:25;97258.66;;;25.20;43.27
29733;BME280;16643;43.158;25.302;2022-09-16T02:13:03;97269.69;;;25.25;43.25
29733;BME280;16643;43.158;25.302;2022-09-16T02:15:30;97282.34;;;25.31;43.22
29733;BME280;16643;43.158;25.302;2022-09-16T02:18:03;97270.47;;;25.17;43.22
29733;BME280;16643;43.158;25.302;2022-09-16T02:20:31;97286.97;;;25.29;42.80
29733;BME280;16643;43.158;25.302;2022-09-16T02:23:11;97272.34;;;25.25;42.81
29733;BME280;16643;43.158;25.302;2022-09-16T02:25:41;97271.56;;;25.41;42.50
29733;BME280;16643;43.158;25.302;2022-09-16T02:28:15;97281.44;;;25.48;42.55
29733;BME280;16643;43.158;25.302;2022-09-16T02:30:48;97278.44;;;25.51;42.34
29733;BME280;16643;43.158;25.302;2022-09-16T02:33:15;97228.97;;;25.32;42.43
29733;BME280;16643;43.158;25.302;2022-09-16T02:35:44;97290.97;;;25.59;42.49
29733;BME280;16643;43.158;25.302;2022-09-16T02:38:29;97280.84;;;25.62;42.35
29733;BME280;16643;43.158;25.302;2022-09-16T02:40:59;97292.53;;;25.70;42.20
29733;BME280;16643;43.158;25.302;2022-09-16T02:43:26;97289.66;;;25.63;42.17
29733;BME280;16643;43.158;25.302;2022-09-16T02:48:20;97297.06;;;25.85;41.71
29733;BME280;16643;43.158;25.302;2022-09-16T02:51:15;97298.59;;;25.88;41.82
29733;BME280;16643;43.158;25.302;2022-09-16T02:54:30;97274.56;;;25.72;41.85
29733;BME280;16643;43.158;25.302;2022-09-16T02:56:44;97271.22;;;25.61;42.02
29733;BME280;16643;43.158;25.302;2022-09-16T02:59:11;97265.19;;;25.59;42.08
29733;BME280;16643;43.158;25.302;2022-09-16T03:01:44;97276.72;;;25.68;42.07
29733;BME280;16643;43.158;25.302;2022-09-16T03:04:13;97270.41;;;25.69;42.04
29733;BME280;16643;43.158;25.302;2022-09-16T03:06:39;97282.41;;;25.73;41.94
29733;BME280;16643;43.158;25.302;2022-09-16T03:09:09;97297.56;;;25.81;42.15
29733;BME280;16643;43.158;25.302;2022-09-16T03:19:51;97267.22;;;25.74;41.72
29733;BME280;16643;43.158;25.302;2022-09-16T03:22:46;97269.94;;;25.82;41.66
29733;BME280;16643;43.158;25.302;2022-09-16T03:25:21;97276.75;;;25.76;42.16
29733;BME280;16643;43.158;25.302;2022-09-16T03:27:59;97238.00;;;25.48;42.14
29733;BME280;16643;43.158;25.302;2022-09-16T03:30:30;97261.56;;;25.68;42.08
29733;BME280;16643;43.158;25.302;2022-09-16T03:33:04;97267.06;;;25.67;41.87
29733;BME280;16643;43.158;25.302;2022-09-16T03:35:35;97275.22;;;25.74;42.01
29733;BME280;16643;43.158;25.302;2022-09-16T03:38:04;97268.41;;;25.71;41.66
29733;BME280;16643;43.158;25.302;2022-09-16T03:40:32;97200.81;;;25.22;41.80
29733;BME280;16643;43.158;25.302;2022-09-16T03:42:58;97258.91;;;25.60;41.94
29733;BME280;16643;43.158;25.302;2022-09-16T03:45:24;97192.81;;;25.14;42.16
29733;BME280;16643;43.158;25.302;2022-09-16T03:47:52;97242.97;;;25.43;42.36
29733;BME280;16643;43.158;25.302;2022-09-16T03:50:20;97233.97;;;25.36;42.26
29733;BME280;16643;43.158;25.302;2022-09-16T03:52:46;97239.59;;;25.32;42.57
29733;BME280;16643;43.158;25.302;2022-09-16T03:55:11;97262.94;;;25.39;42.68
29733;BME280;16643;43.158;25.302;2022-09-16T03:57:38;97277.25;;;25.38;42.76
29733;BME280;16643;43.158;25.302;2022-09-16T04:00:05;97289.38;;;25.40;43.40
29733;BME280;16643;43.158;25.302;2022-09-16T04:02:32;97284.53;;;25.36;42.97
29733;BME280;16643;43.158;25.302;2022-09-16T04:04:57;97273.19;;;25.25;42.90
29733;BME280;16643;43.158;25.302;2022-09-16T04:07:23;97271.13;;;25.19;43.43
29733;BME280;16643;43.158;25.302;2022-09-16T04:09:49;97294.31;;;25.27;43.59
29733;BME280;16643;43.158;25.302;2022-09-16T04:12:14;97266.25;;;25.07;43.80
29733;BME280;16643;43.158;25.302;2022-09-16T04:14:40;97261.53;;;24.92;43.44
29733;BME280;16643;43.158;25.302;2022-09-16T04:17:06;97277.16;;;24.95;44.13
29733;BME280;16643;43.158;25.302;2022-09-16T04:19:31;97296.50;;;25.06;43.83
29733;BME280;16643;43.158;25.302;2022-09-16T04:21:57;97303.81;;;25.04;43.51
29733;BME280;16643;43.158;25.302;2022-09-16T04:24:23;97288.53;;;25.06;42.70
29733;BME280;16643;43.158;25.302;2022-09-16T04:26:49;97285.56;;;25.09;42.77
29733;BME280;16643;43.158;25.302;2022-09-16T04:29:15;97311.28;;;25.26;42.81
29733;BME280;16643;43.158;25.302;2022-09-16T04:31:42;97320.13;;;25.35;42.76
29733;BME280;16643;43.158;25.302;2022-09-16T04:34:08;97329.50;;;25.39;42.66
29733;BME280;16643;43.158;25.302;2022-09-16T04:36:36;97310.34;;;25.43;42.45
29733;BME280;16643;43.158;25.302;2022-09-16T04:39:02;97292.72;;;25.42;42.43
29733;BME280;16643;43.158;25.302;2022-09-16T04:41:28;97289.94;;;25.52;42.04
29733;BME280;16643;43.158;25.302;2022-09-16T04:43:57;97296.75;;;25.54;42.39
29733;BME280;16643;43.158;25.302;2022-09-16T04:46:25;97325.50;;;25.68;42.41
29733;BME280;16643;43.158;25.302;2022-09-16T04:48:52;97325.81;;;25.74;42.49
29733;BME280;16643;43.158;25.302;2022-09-16T04:51:19;97314.03;;;25.76;42.37
29733;BME280;16643;43.158;25.302;2022-09-16T04:53:45;97326.03;;;25.80;41.60
29733;BME280;16643;43.158;25.302;2022-09-16T04:56:22;97292.72;;;25.76;42.00
29733;BME280;16643;43.158;25.302;2022-09-16T04:58:52;97312.94;;;25.95;42.06
29733;BME280;16643;43.158;25.302;2022-09-16T05:01:24;97324.25;;;25.97;41.83
29733;BME280;16643;43.158;25.302;2022-09-16T05:03:52;97303.91;;;25.80;41.94
29733;BME280;16643;43.158;25.302;2022-09-16T05:06:21;97291.38;;;25.72;41.84
29733;BME280;16643;43.158;25.302;2022-09-16T05:08:48;97320.25;;;25.93;41.75
29733;BME280;16643;43.158;25.302;2022-09-16T05:11:17;97336.41;;;25.99;42.33
29733;BME280;16643;43.158;25.302;2022-09-16T05:13:43;97313.94;;;25.94;41.75
29733;BME280;16643;43.158;25.302;2022-09-16T05:16:20;97291.09;;;25.91;41.67
29733;BME280;16643;43.158;25.302;2022-09-16T05:18:47;97294.94;;;25.97;41.73
29733;BME280;16643;43.158;25.302;2022-09-16T05:21:17;97316.66;;;26.18;41.81
29733;BME280;16643;43.158;25.302;2022-09-16T05:23:44;97322.47;;;26.22;42.13
29733;BME280;16643;43.158;25.302;2022-09-16T05:26:16;97311.66;;;26.15;42.13
29733;BME280;16643;43.158;25.302;2022-09-16T05:28:42;97288.31;;;26.09;41.61
29733;BME280;16643;43.158;25.302;2022-09-16T05:31:25;97312.88;;;26.29;42.10
29733;BME280;16643;43.158;25.302;2022-09-16T05:34:12;97298.34;;;26.15;41.59
29733;BME280;16643;43.158;25.302;2022-09-16T05:36:38;97325.88;;;26.32;42.12
29733;BME280;16643;43.158;25.302;2022-09-16T05:39:06;97333.69;;;26.33;41.87
29733;BME280;16643;43.158;25.302;2022-09-16T05:41:32;97307.00;;;26.25;41.85
29733;BME280;16643;43.158;25.302;2022-09-16T05:43:58;97306.72;;;26.28;41.77
29733;BME280;16643;43.158;25.302;2022-09-16T05:46:25;97319.69;;;26.31;41.63
29733;BME280;16643;43.158;25.302;2022-09-16T05:48:51;97329.03;;;26.44;41.95
29733;BME280;16643;43.158;25.302;2022-09-16T05:51:20;97333.38;;;26.45;42.12
29733;BME280;16643;43.158;25.302;2022-09-16T05:53:47;97330.22;;;26.49;41.79
29733;BME280;16643;43.158;25.302;2022-09-16T05:56:15;97337.59;;;26.63;41.86
29733;BME280;16643;43.158;25.302;2022-09-16T05:58:41;97334.91;;;26.71;42.09
29733;BME280;16643;43.158;25.302;2022-09-16T06:01:09;97329.41;;;26.73;41.80
29733;BME280;16643;43.158;25.302;2022-09-16T06:03:37;97331.72;;;26.76;42.21
29733;BME280;16643;43.158;25.302;2022-09-16T06:06:05;97324.41;;;26.86;41.55
29733;BME280;16643;43.158;25.302;2022-09-16T06:08:33;97342.44;;;27.00;41.69
29733;BME280;16643;43.158;25.302;2022-09-16T06:11:00;97349.75;;;26.98;41.98
29733;BME280;16643;43.158;25.302;2022-09-16T06:13:26;97329.41;;;26.89;41.84
29733;BME280;16643;43.158;25.302;2022-09-16T06:15:52;97347.41;;;26.87;41.53
29733;BME280;16643;43.158;25.302;2022-09-16T06:18:22;97334.91;;;26.88;41.68
29733;BME280;16643;43.158;25.302;2022-09-16T06:20:48;97323.56;;;26.77;41.68
29733;BME280;16643;43.158;25.302;2022-09-16T06:23:14;97337.41;;;26.89;41.36
29733;BME280;16643;43.158;25.302;2022-09-16T06:25:40;97329.44;;;26.97;42.14
29733;BME280;16643;43.158;25.302;2022-09-16T06:28:06;97340.78;;;27.07;40.90
29733;BME280;16643;43.158;25.302;2022-09-16T06:30:34;97355.25;;;27.21;41.59
29733;BME280;16643;43.158;25.302;2022-09-16T06:33:00;97322.06;;;27.16;41.22
29733;BME280;16643;43.158;25.302;2022-09-16T06:35:26;97322.53;;;27.35;40.40
29733;BME280;16643;43.158;25.302;2022-09-16T06:37:52;97345.00;;;27.65;40.73
29733;BME280;16643;43.158;25.302;2022-09-16T06:40:18;97326.78;;;27.69;40.00
29733;BME280;16643;43.158;25.302;2022-09-16T06:42:44;97357.63;;;27.88;39.94
29733;BME280;16643;43.158;25.302;2022-09-16T06:45:09;97335.69;;;27.92;39.37
29733;BME280;16643;43.158;25.302;2022-09-16T06:47:35;97332.97;;;28.08;39.48
29733;BME280;16643;43.158;25.302;2022-09-16T06:50:02;97359.41;;;28.57;39.14
29733;BME280;16643;43.158;25.302;2022-09-16T06:52:28;97362.81;;;28.74;38.61
29733;BME280;16643;43.158;25.302;2022-09-16T06:54:54;97366.69;;;28.71;38.68
29733;BME280;16643;43.158;25.302;2022-09-16T06:57:20;97364.34;;;28.68;38.74
29733;BME280;16643;43.158;25.302;2022-09-16T06:59:48;97313.94;;;28.57;38.64
29733;BME280;16643;43.158;25.302;2022-09-16T07:02:14;97358.41;;;28.89;38.40
29733;BME280;16643;43.158;25.302;2022-09-16T07:04:40;97341.84;;;28.85;38.80
29733;BME280;16643;43.158;25.302;2022-09-16T07:07:06;97343.44;;;28.95;38.24
29733;BME280;16643;43.158;25.302;2022-09-16T07:09:32;97349.69;;;29.10;38.57
29733;BME280;16643;43.158;25.302;2022-09-16T07:11:57;97348.31;;;29.29;38.65
29733;BME280;16643;43.158;25.302;2022-09-16T07:14:24;97353.97;;;29.34;38.44
29733;BME280;16643;43.158;25.302;2022-09-16T07:16:50;97374.56;;;29.33;37.91
29733;BME280;16643;43.158;25.302;2022-09-16T07:19:16;97360.75;;;29.07;38.26
29733;BME280;16643;43.158;25.302;2022-09-16T07:21:42;97344.19;;;29.03;37.83
29733;BME280;16643;43.158;25.302;2022-09-16T07:24:10;97340.59;;;28.96;38.24
29733;BME280;16643;43.158;25.302;2022-09-16T07:26:40;97380.28;;;29.30;37.75
29733;BME280;16643;43.158;25.302;2022-09-16T07:29:10;97389.75;;;29.41;38.11
29733;BME280;16643;43.158;25.302;2022-09-16T07:31:36;97397.25;;;29.60;38.31
29733;BME280;16643;43.158;25.302;2022-09-16T07:34:03;97379.81;;;29.64;38.15
29733;BME280;16643;43.158;25.302;2022-09-16T07:36:32;97347.09;;;29.54;38.06
29733;BME280;16643;43.158;25.302;2022-09-16T07:38:59;97386.81;;;29.94;37.28
29733;BME280;16643;43.158;25.302;2022-09-16T07:41:27;97396.56;;;29.95;37.17
29733;BME280;16643;43.158;25.302;2022-09-16T07:43:54;97400.03;;;29.81;37.39
29733;BME280;16643;43.158;25.302;2022-09-16T07:46:24;97380.91;;;29.55;38.08
29733;BME280;16643;43.158;25.302;2022-09-16T07:48:50;97370.63;;;29.58;38.57
29733;BME280;16643;43.158;25.302;2022-09-16T07:51:18;97370.38;;;29.68;38.28
29733;BME280;16643;43.158;25.302;2022-09-16T07:53:45;97384.53;;;29.77;38.46
29733;BME280;16643;43.158;25.302;2022-09-16T07:56:13;97398.75;;;29.92;38.28
29733;BME280;16643;43.158;25.302;2022-09-16T07:58:40;97396.63;;;29.87;37.54
29733;BME280;16643;43.158;25.302;2022-09-16T08:01:06;97400.88;;;29.82;37.89
29733;BME280;16643;43.158;25.302;2022-09-16T08:03:33;97403.66;;;29.88;38.31
29733;BME280;16643;43.158;25.302;2022-09-16T08:06:14;97400.97;;;29.88;38.13
29733;BME280;16643;43.158;25.302;2022-09-16T08:08:40;97342.00;;;29.59;39.71
29733;BME280;16643;43.158;25.302;2022-09-16T08:11:06;97375.22;;;30.02;40.03
29733;BME280;16643;43.158;25.302;2022-09-16T08:13:33;97403.34;;;30.27;38.96
29733;BME280;16643;43.158;25.302;2022-09-16T08:16:01;97367.97;;;29.88;38.66
29733;BME280;16643;43.158;25.302;2022-09-16T08:18:28;97399.13;;;29.89;38.58
29733;BME280;16643;43.158;25.302;2022-09-16T08:20:54;97391.38;;;29.79;39.90
29733;BME280;16643;43.158;25.302;2022-09-16T08:23:19;97410.28;;;29.92;38.64
29733;BME280;16643;43.158;25.302;2022-09-16T08:25:45;97382.56;;;29.85;38.71
29733;BME280;16643;43.158;25.302;2022-09-16T08:28:15;97411.34;;;30.06;39.05
29733;BME280;16643;43.158;25.302;2022-09-16T08:30:42;97384.53;;;30.06;38.36
29733;BME280;16643;43.158;25.302;2022-09-16T08:33:08;97394.94;;;30.30;39.52
29733;BME280;16643;43.158;25.302;2022-09-16T08:35:35;97388.63;;;30.53;38.21
29733;BME280;16643;43.158;25.302;2022-09-16T08:38:01;97400.53;;;30.86;38.50
29733;BME280;16643;43.158;25.302;2022-09-16T08:40:30;97375.69;;;30.78;37.50
29733;BME280;16643;43.158;25.302;2022-09-16T08:43:41;97393.06;;;31.03;37.43
29733;BME280;16643;43.158;25.302;2022-09-16T08:49:40;97394.41;;;30.92;38.22
29733;BME280;16643;43.158;25.302;2022-09-16T08:54:56;97363.41;;;30.68;37.96
29733;BME280;16643;43.158;25.302;2022-09-16T08:57:25;97349.69;;;30.85;38.11
29733;BME280;16643;43.158;25.302;2022-09-16T08:59:55;97358.53;;;30.79;37.80
29733;BME280;16643;43.158;25.302;2022-09-16T09:02:38;97370.66;;;30.96;38.03
29733;BME280;16643;43.158;25.302;2022-09-16T09:10:45;97346.91;;;31.14;37.33
29733;BME280;16643;43.158;25.302;2022-09-16T09:21:34;97305.97;;;31.12;36.63
29733;BME280;16643;43.158;25.302;2022-09-16T09:27:00;97290.34;;;31.01;36.78
29733;BME280;16643;43.158;25.302;2022-09-16T09:29:53;97333.97;;;31.59;36.88
29733;BME280;16643;43.158;25.302;2022-09-16T09:40:51;97326.94;;;31.58;35.91
29733;BME280;16643;43.158;25.302;2022-09-16T09:43:32;97356.06;;;31.54;36.10
29733;BME280;16643;43.158;25.302;2022-09-16T09:46:11;97355.44;;;31.52;36.31
29733;BME280;16643;43.158;25.302;2022-09-16T09:48:54;97308.75;;;31.04;35.81
29733;BME280;16643;43.158;25.302;2022-09-16T09:54:02;97356.41;;;31.17;36.08
29733;BME280;16643;43.158;25.302;2022-09-16T09:56:33;97326.16;;;31.08;36.96
29733;BME280;16643;43.158;25.302;2022-09-16T10:01:52;97343.13;;;31.09;36.45
29733;BME280;16643;43.158;25.302;2022-09-16T10:04:19;97277.66;;;30.88;35.89
29733;BME280;16643;43.158;25.302;2022-09-16T10:06:45;97315.53;;;31.21;36.16
29733;BME280;16643;43.158;25.302;2022-09-16T10:09:14;97333.00;;;31.38;35.87
29733;BME280;16643;43.158;25.302;2022-09-16T10:11:47;97341.13;;;31.45;37.07
29733;BME280;16643;43.158;25.302;2022-09-16T10:14:44;97334.72;;;31.46;36.02
29733;BME280;16643;43.158;25.302;2022-09-16T10:17:15;97317.38;;;31.21;35.98
29733;BME280;16643;43.158;25.302;2022-09-16T10:19:53;97339.56;;;31.29;36.15
29733;BME280;16643;43.158;25.302;2022-09-16T10:24:59;97313.41;;;30.89;36.54
29733;BME280;16643;43.158;25.302;2022-09-16T10:27:30;97323.84;;;31.05;36.74
29733;BME280;16643;43.158;25.302;2022-09-16T10:30:18;97318.47;;;31.26;36.73
29733;BME280;16643;43.158;25.302;2022-09-16T10:32:50;97326.75;;;31.31;36.62
29733;BME280;16643;43.158;25.302;2022-09-16T10:35:26;97337.31;;;31.33;35.98
29733;BME280;16643;43.158;25.302;2022-09-16T10:37:55;97308.56;;;31.05;36.27
29733;BME280;16643;43.158;25.302;2022-09-16T10:40:22;97335.31;;;31.14;36.35
29733;BME280;16643;43.158;25.302;2022-09-16T10:42:50;97329.50;;;31.10;36.88
29733;BME280;16643;43.158;25.302;2022-09-16T10:45:25;97319.72;;;31.02;36.65
29733;BME280;16643;43.158;25.302;2022-09-16T10:47:57;97326.16;;;31.08;36.72
29733;BME280;16643;43.158;25.302;2022-09-16T10:50:24;97321.56;;;31.02;37.00
29733;BME280;16643;43.158;25.302;2022-09-16T10:52:51;97292.63;;;30.76;36.53
29733;BME280;16643;43.158;25.302;2022-09-16T10:55:23;97301.25;;;30.72;37.25
29733;BME280;16643;43.158;25.302;2022-09-16T10:57:49;97260.66;;;30.60;37.06
29733;BME280;16643;43.158;25.302;2022-09-16T11:00:18;97311.41;;;30.97;37.32
29733;BME280;16643;43.158;25.302;2022-09-16T11:03:21;97307.22;;;30.95;37.89
29733;BME280;16643;43.158;25.302;2022-09-16T11:08:52;97299.19;;;30.95;37.16
29733;BME280;16643;43.158;25.302;2022-09-16T11:23:02;97264.44;;;30.65;36.52
29733;BME280;16643;43.158;25.302;2022-09-16T11:31:39;97267.25;;;30.79;37.27
29733;BME280;16643;43.158;25.302;2022-09-16T11:36:44;97285.06;;;30.86;37.08
29733;BME280;16643;43.158;25.302;2022-09-16T12:00:57;97253.03;;;30.57;37.66
29733;BME280;16643;43.158;25.302;2022-09-16T12:03:41;97255.19;;;30.47;37.95
29733;BME280;16643;43.158;25.302;2022-09-16T12:06:14;97261.13;;;30.42;39.07
29733;BME280;16643;43.158;25.302;2022-09-16T12:09:32;97266.66;;;30.41;38.18
29733;BME280;16643;43.158;25.302;2022-09-16T12:11:43;97233.97;;;30.09;38.49
29733;BME280;16643;43.158;25.302;2022-09-16T12:14:23;97261.97;;;30.07;38.69
29733;BME280;16643;43.158;25.302;2022-09-16T12:16:55;97254.91;;;29.84;39.31
29733;BME280;16643;43.158;25.302;2022-09-16T12:19:28;97253.03;;;29.85;39.18
29733;BME280;16643;43.158;25.302;2022-09-16T12:22:04;97271.88;;;29.91;39.27
29733;BME280;16643;43.158;25.302;2022-09-16T12:24:41;97278.84;;;29.86;39.52
29733;BME280;16643;43.158;25.302;2022-09-16T12:29:48;97292.53;;;29.76;40.09
29733;BME280;16643;43.158;25.302;2022-09-16T12:32:41;97300.41;;;29.63;40.19
29733;BME280;16643;43.158;25.302;2022-09-16T12:35:13;97259.84;;;29.22;41.29
29733;BME280;16643;43.158;25.302;2022-09-16T12:37:46;97294.00;;;29.35;42.50
29733;BME280;16643;43.158;25.302;2022-09-16T12:40:22;97321.28;;;29.38;43.43
29733;BME280;16643;43.158;25.302;2022-09-16T12:49:08;97288.19;;;28.56;49.77
29733;BME280;16643;43.158;25.302;2022-09-16T13:02:45;97333.66;;;27.47;55.34
29733;BME280;16643;43.158;25.302;2022-09-16T13:05:20;97315.44;;;26.95;56.13
29733;BME280;16643;43.158;25.302;2022-09-16T13:07:54;97278.88;;;26.55;56.87
29733;BME280;16643;43.158;25.302;2022-09-16T13:10:38;97319.91;;;26.79;57.13
29733;BME280;16643;43.158;25.302;2022-09-16T13:13:06;97304.06;;;26.61;56.89
29733;BME280;16643;43.158;25.302;2022-09-16T13:15:33;97299.41;;;26.63;55.83
29733;BME280;16643;43.158;25.302;2022-09-16T13:20:57;97290.56;;;26.46;56.32
29733;BME280;16643;43.158;25.302;2022-09-16T13:23:30;97276.56;;;26.36;56.21
29733;BME280;16643;43.158;25.302;2022-09-16T13:26:02;97295.56;;;26.41;56.16
29733;BME280;16643;43.158;25.302;2022-09-16T13:31:28;97297.41;;;26.41;56.24
29733;BME280;16643;43.158;25.302;2022-09-16T13:41:32;97263.56;;;26.57;55.45
29733;BME280;16643;43.158;25.302;2022-09-16T13:43:59;97277.56;;;26.59;55.43
29733;BME280;16643;43.158;25.302;2022-09-16T13:51:25;97240.53;;;26.81;55.10
29733;BME280;16643;43.158;25.302;2022-09-16T13:53:52;97240.19;;;26.84;55.54
29733;BME280;16643;43.158;25.302;2022-09-16T14:02:00;97276.88;;;26.82;54.72
29733;BME280;16643;43.158;25.302;2022-09-16T14:04:48;97251.00;;;26.90;54.44
29733;BME280;16643;43.158;25.302;2022-09-16T14:10:18;97247.22;;;26.93;53.83
29733;BME280;16643;43.158;25.302;2022-09-16T14:15:20;97238.03;;;26.79;54.24
29733;BME280;16643;43.158;25.302;2022-09-16T14:17:50;97223.22;;;26.68;54.68
29733;BME280;16643;43.158;25.302;2022-09-16T14:20:21;97233.72;;;26.70;53.86
29733;BME280;16643;43.158;25.302;2022-09-16T14:22:47;97195.41;;;26.47;53.85
29733;BME280;16643;43.158;25.302;2022-09-16T14:25:35;97229.22;;;26.62;54.19
29733;BME280;16643;43.158;25.302;2022-09-16T14:28:14;97228.38;;;26.70;54.00
29733;BME280;16643;43.158;25.302;2022-09-16T14:31:01;97234.03;;;26.67;52.82
29733;BME280;16643;43.158;25.302;2022-09-16T14:33:32;97252.03;;;26.81;52.45
29733;BME280;16643;43.158;25.302;2022-09-16T14:36:06;97243.72;;;26.84;52.64
29733;BME280;16643;43.158;25.302;2022-09-16T14:38:57;97241.38;;;26.73;53.27
29733;BME280;16643;43.158;25.302;2022-09-16T14:43:50;97232.72;;;26.55;54.40
29733;BME280;16643;43.158;25.302;2022-09-16T14:46:17;97235.06;;;26.50;54.82
29733;BME280;16643;43.158;25.302;2022-09-16T14:48:43;97250.56;;;26.54;55.31
29733;BME280;16643;43.158;25.302;2022-09-16T14:51:19;97247.06;;;26.54;55.33
29733;BME280;16643;43.158;25.302;2022-09-16T14:53:57;97248.91;;;26.61;55.58
29733;BME280;16643;43.158;25.302;2022-09-16T14:56:25;97250.38;;;26.56;56.07
29733;BME280;16643;43.158;25.302;2022-09-16T14:58:52;97256.25;;;26.51;56.25
29733;BME280;16643;43.158;25.302;2022-09-16T15:01:27;97238.06;;;26.47;56.55
29733;BME280;16643;43.158;25.302;2022-09-16T15:04:04;97219.25;;;26.40;56.76
29733;BME280;16643;43.158;25.302;2022-09-16T15:06:38;97198.03;;;26.22;56.53
29733;BME280;16643;43.158;25.302;2022-09-16T15:09:14;97206.75;;;26.41;56.45
29733;BME280;16643;43.158;25.302;2022-09-16T15:11:51;97235.22;;;26.64;56.99
29733;BME280;16643;43.158;25.302;2022-09-16T15:14:19;97170.91;;;26.27;56.62
29733;BME280;16643;43.158;25.302;2022-09-16T15:16:59;97225.72;;;26.54;56.79
29733;BME280;16643;43.158;25.302;2022-09-16T15:19:38;97196.25;;;26.39;57.26
29733;BME280;16643;43.158;25.302;2022-09-16T15:22:09;97213.41;;;26.36;56.31
29733;BME280;16643;43.158;25.302;2022-09-16T15:24:39;97235.41;;;26.47;56.04
29733;BME280;16643;43.158;25.302;2022-09-16T15:27:06;97200.72;;;26.30;55.94
29733;BME280;16643;43.158;25.302;2022-09-16T15:29:35;97205.75;;;26.50;55.58
29733;BME280;16643;43.158;25.302;2022-09-16T15:32:19;97174.25;;;26.37;53.82
29733;BME280;16643;43.158;25.302;2022-09-16T15:34:49;97178.59;;;26.38;53.60
29733;BME280;16643;43.158;25.302;2022-09-16T15:37:30;97200.22;;;26.43;51.08
29733;BME280;16643;43.158;25.302;2022-09-16T15:40:19;97211.38;;;26.55;49.26
29733;BME280;16643;43.158;25.302;2022-09-16T15:42:47;97192.91;;;26.37;49.54
29733;BME280;16643;43.158;25.302;2022-09-16T15:45:18;97212.75;;;26.51;49.44
29733;BME280;16643;43.158;25.302;2022-09-16T15:48:00;97213.06;;;26.48;49.14
29733;BME280;16643;43.158;25.302;2022-09-16T15:50:29;97202.25;;;26.41;48.17
29733;BME280;16643;43.158;25.302;2022-09-16T15:55:51;97222.88;;;26.55;48.77
29733;BME280;16643;43.158;25.302;2022-09-16T16:04:07;97208.38;;;26.58;48.64
29733;BME280;16643;43.158;25.302;2022-09-16T16:12:03;97186.91;;;26.51;48.25
29733;BME280;16643;43.158;25.302;2022-09-16T16:14:31;97181.41;;;26.45;48.63